Time;durP1;ratioP1;P1;durP2;ratioP2;P2;SDS_P1;SDS_P2;PMS_P1;PMS_P2;Temp;Humidity;BMP_temperature;BMP_pressure;BME280_temperature;BME280_humidity;BME280_pressure;Samples;Min_cycle;Max_cycle;Signal;HPM_P1;HPM_P2
2021/10/27 00:01:45;;;;;;;7.90;7.20;;;12.10;99.90;;;;;;5032635;28;20168;-72
2021/10/27 00:04:10;;;;;;;7.77;6.93;;;12.10;99.90;;;;;;5032951;28;20157;-71
2021/10/27 00:06:36;;;;;;;11.47;8.23;;;12.10;99.90;;;;;;5032869;28;20157;-71
2021/10/27 00:09:03;;;;;;;9.17;8.27;;;12.10;99.90;;;;;;5032354;28;20280;-71
2021/10/27 00:11:29;;;;;;;8.63;7.73;;;12.10;99.90;;;;;;5032657;28;20570;-70
2021/10/27 00:13:55;;;;;;;8.00;7.20;;;12.10;99.90;;;;;;5032800;28;20489;-71
2021/10/27 00:16:20;;;;;;;8.37;7.50;;;12.10;99.90;;;;;;5032669;28;20384;-71
2021/10/27 00:18:46;;;;;;;8.37;7.47;;;12.20;99.90;;;;;;5032443;28;20606;-71
2021/10/27 00:21:12;;;;;;;12.40;8.17;;;12.20;99.90;;;;;;5032229;28;20230;-71
2021/10/27 00:23:37;;;;;;;8.40;7.37;;;12.20;99.90;;;;;;5032501;28;20650;-71
2021/10/27 00:26:04;;;;;;;8.33;7.33;;;12.20;99.90;;;;;;5032934;28;20622;-71
2021/10/27 00:28:29;;;;;;;8.70;7.70;;;12.20;99.90;;;;;;5031862;28;20589;-71
2021/10/27 00:30:55;;;;;;;8.80;8.00;;;12.20;99.90;;;;;;5031828;28;20443;-71
2021/10/27 00:33:21;;;;;;;8.30;7.50;;;12.20;99.90;;;;;;5032412;28;20267;-71
2021/10/27 00:35:46;;;;;;;8.10;7.30;;;12.20;99.90;;;;;;5032581;28;20164;-71
2021/10/27 00:38:12;;;;;;;8.40;7.20;;;12.30;99.90;;;;;;5032796;28;20562;-71
2021/10/27 00:40:38;;;;;;;10.53;7.87;;;12.30;99.90;;;;;;5032363;28;20185;-71
2021/10/27 00:43:03;;;;;;;7.07;6.37;;;12.30;99.90;;;;;;5032266;28;20177;-71
2021/10/27 00:45:29;;;;;;;7.93;6.20;;;12.30;99.90;;;;;;5032400;28;20165;-71
2021/10/27 00:47:54;;;;;;;8.03;7.23;;;12.30;99.90;;;;;;5032366;28;20208;-71
2021/10/27 00:50:20;;;;;;;8.77;7.10;;;12.30;99.90;;;;;;5032182;28;20169;-71
2021/10/27 00:52:45;;;;;;;9.30;7.83;;;12.30;99.90;;;;;;5032353;28;20153;-71
2021/10/27 00:55:13;;;;;;;7.70;6.90;;;12.30;99.90;;;;;;5032786;28;20528;-71
2021/10/27 00:57:39;;;;;;;11.00;8.33;;;12.30;99.90;;;;;;5032627;28;20165;-71
2021/10/27 01:00:06;;;;;;;10.50;8.90;;;12.30;99.90;;;;;;5031862;28;20438;-72
2021/10/27 01:02:32;;;;;;;10.80;9.20;;;12.30;99.90;;;;;;5032393;28;20168;-71
2021/10/27 01:04:57;;;;;;;10.23;9.17;;;12.30;99.90;;;;;;5032442;28;20937;-71
2021/10/27 01:07:23;;;;;;;11.83;9.90;;;12.30;99.90;;;;;;5032287;28;20200;-71
2021/10/27 01:09:49;;;;;;;10.00;8.80;;;12.40;99.90;;;;;;5031880;28;20247;-71
2021/10/27 01:12:15;;;;;;;10.57;9.57;;;12.40;99.90;;;;;;5032168;28;20176;-71
2021/10/27 01:14:43;;;;;;;9.93;8.90;;;12.40;99.90;;;;;;5033772;28;20191;-71
2021/10/27 01:17:10;;;;;;;10.80;9.37;;;12.40;99.90;;;;;;5035889;28;20676;-71
2021/10/27 01:19:44;;;;;;;9.80;8.90;;;12.40;99.90;;;;;;5035356;28;20487;-72
2021/10/27 01:22:10;;;;;;;11.43;10.30;;;12.40;99.90;;;;;;5016102;28;20392;-71
2021/10/27 01:24:36;;;;;;;9.57;8.57;;;12.40;99.90;;;;;;5015973;28;20408;-71
2021/10/27 01:27:03;;;;;;;9.53;8.63;;;12.40;99.90;;;;;;5015908;28;20446;-71
2021/10/27 01:29:28;;;;;;;10.47;8.90;;;12.40;99.90;;;;;;5015946;28;20248;-71
2021/10/27 01:31:54;;;;;;;9.70;8.60;;;12.40;99.90;;;;;;5034537;28;20431;-71
2021/10/27 01:34:19;;;;;;;9.73;8.33;;;12.40;99.90;;;;;;5035730;28;20236;-71
2021/10/27 01:36:45;;;;;;;8.53;7.70;;;12.40;99.90;;;;;;5035706;28;20161;-71
2021/10/27 01:39:11;;;;;;;9.60;8.20;;;12.40;99.90;;;;;;5035634;28;20154;-71
2021/10/27 01:41:36;;;;;;;9.23;8.33;;;12.40;99.90;;;;;;5035427;28;20517;-71
2021/10/27 01:44:02;;;;;;;11.40;8.43;;;12.40;99.90;;;;;;5035723;28;20530;-71
2021/10/27 01:46:31;;;;;;;8.70;7.80;;;12.50;99.90;;;;;;5035844;28;20544;-71
2021/10/27 01:48:58;;;;;;;8.60;7.37;;;12.50;99.90;;;;;;5035306;28;20267;-71
2021/10/27 01:51:25;;;;;;;7.30;6.60;;;12.50;99.90;;;;;;5035062;28;20442;-71
2021/10/27 01:53:52;;;;;;;7.77;6.97;;;12.50;99.90;;;;;;5035269;28;20415;-71
2021/10/27 01:56:18;;;;;;;9.53;7.20;;;12.60;99.90;;;;;;5035330;28;20980;-71
2021/10/27 01:58:44;;;;;;;8.57;7.67;;;12.60;99.90;;;;;;5035098;28;20434;-71
2021/10/27 02:01:09;;;;;;;8.60;6.87;;;12.60;99.90;;;;;;5034996;28;20517;-71
2021/10/27 02:03:35;;;;;;;7.20;6.60;;;12.60;99.90;;;;;;5035166;28;20172;-71
2021/10/27 02:06:00;;;;;;;7.40;6.67;;;12.60;99.90;;;;;;5035563;28;20161;-75
2021/10/27 02:08:26;;;;;;;7.23;6.40;;;12.60;99.90;;;;;;5034672;28;20295;-73
2021/10/27 02:10:51;;;;;;;7.50;6.50;;;12.60;99.90;;;;;;5034460;28;20184;-73
2021/10/27 02:13:17;;;;;;;9.53;6.50;;;12.60;99.90;;;;;;5034867;28;20233;-76
2021/10/27 02:15:43;;;;;;;6.73;6.13;;;12.60;99.90;;;;;;5034833;28;20208;-75
2021/10/27 02:18:08;;;;;;;7.37;6.07;;;12.60;99.90;;;;;;5035186;28;20184;-73
2021/10/27 02:20:34;;;;;;;7.23;5.53;;;12.60;99.90;;;;;;5034760;28;20239;-71
2021/10/27 02:22:59;;;;;;;9.23;6.20;;;12.60;99.90;;;;;;5034941;28;20157;-72
2021/10/27 02:25:25;;;;;;;6.30;5.70;;;12.60;99.90;;;;;;5034643;28;20231;-72
2021/10/27 02:27:50;;;;;;;6.30;5.70;;;12.60;99.90;;;;;;5034334;28;20222;-71
2021/10/27 02:30:16;;;;;;;6.17;5.57;;;12.70;99.90;;;;;;5034385;28;20161;-72
2021/10/27 02:32:41;;;;;;;8.57;6.70;;;12.70;99.90;;;;;;5034490;28;20273;-72
2021/10/27 02:35:07;;;;;;;7.40;5.90;;;12.70;99.90;;;;;;5034600;28;20207;-71
2021/10/27 02:37:33;;;;;;;7.17;5.83;;;12.70;99.90;;;;;;5034368;28;20173;-71
2021/10/27 02:39:58;;;;;;;6.13;5.13;;;12.70;99.90;;;;;;5033941;28;20431;-71
2021/10/27 02:42:24;;;;;;;8.00;5.90;;;12.70;99.90;;;;;;5034239;28;20157;-71
2021/10/27 02:44:49;;;;;;;7.43;5.67;;;12.70;99.90;;;;;;5034369;28;20198;-71
2021/10/27 02:47:15;;;;;;;8.60;6.20;;;12.70;99.90;;;;;;5034108;28;20165;-71
2021/10/27 02:49:41;;;;;;;6.70;4.80;;;12.70;99.90;;;;;;5033966;28;20260;-72
2021/10/27 02:52:06;;;;;;;6.73;4.50;;;12.70;99.90;;;;;;5033970;28;20157;-71
2021/10/27 02:54:32;;;;;;;6.40;5.27;;;12.70;99.90;;;;;;5034084;28;20154;-71
2021/10/27 02:56:57;;;;;;;6.83;5.17;;;12.70;99.90;;;;;;5034018;28;20571;-71
2021/10/27 02:59:23;;;;;;;5.90;4.80;;;12.70;99.90;;;;;;5034034;28;20161;-71
2021/10/27 03:01:48;;;;;;;6.60;4.93;;;12.70;99.90;;;;;;5033573;28;20165;-70
2021/10/27 03:04:14;;;;;;;5.53;4.63;;;12.70;99.90;;;;;;5034144;28;20172;-71
2021/10/27 03:06:40;;;;;;;6.77;5.57;;;12.70;99.90;;;;;;5033929;28;20188;-72
2021/10/27 03:09:07;;;;;;;6.30;4.47;;;12.70;99.90;;;;;;5033943;28;20680;-71
2021/10/27 03:11:32;;;;;;;6.20;5.30;;;12.70;99.90;;;;;;5033641;28;20415;-71
2021/10/27 03:13:58;;;;;;;5.80;5.30;;;12.70;99.90;;;;;;5033912;28;20392;-71
2021/10/27 03:16:24;;;;;;;5.00;4.50;;;12.70;99.90;;;;;;5033749;28;20507;-72
2021/10/27 03:18:49;;;;;;;7.00;4.67;;;12.70;99.90;;;;;;5033533;28;20253;-72
2021/10/27 03:21:15;;;;;;;4.80;4.40;;;12.70;99.90;;;;;;5033483;28;20185;-71
2021/10/27 03:23:40;;;;;;;8.97;4.20;;;12.70;99.90;;;;;;5033907;28;20211;-71
2021/10/27 03:26:06;;;;;;;4.90;4.40;;;12.80;99.90;;;;;;5033374;28;20157;-71
2021/10/27 03:28:32;;;;;;;5.73;4.97;;;12.80;99.90;;;;;;5033308;28;20200;-71
2021/10/27 03:30:58;;;;;;;6.10;4.60;;;12.80;99.90;;;;;;5032840;28;20200;-72
2021/10/27 03:33:24;;;;;;;5.03;4.53;;;12.70;99.90;;;;;;5030805;28;20176;-72
2021/10/27 03:35:50;;;;;;;5.17;4.40;;;12.80;99.90;;;;;;5031938;28;20169;-72
2021/10/27 03:38:16;;;;;;;5.50;4.60;;;12.80;99.90;;;;;;5029324;28;20427;-72
2021/10/27 03:40:43;;;;;;;5.93;4.70;;;12.80;99.90;;;;;;5030621;28;20942;-71
2021/10/27 03:43:09;;;;;;;6.47;4.13;;;12.80;99.90;;;;;;5027162;28;20215;-72
2021/10/27 03:45:34;;;;;;;6.03;5.30;;;12.80;99.90;;;;;;5032843;28;20427;-72
2021/10/27 03:48:00;;;;;;;5.83;4.47;;;12.80;99.90;;;;;;5030591;28;20459;-71
2021/10/27 03:50:25;;;;;;;5.40;4.60;;;12.80;99.90;;;;;;5032560;28;20176;-71
2021/10/27 03:52:51;;;;;;;5.47;4.27;;;12.80;99.90;;;;;;5032543;28;20280;-71
2021/10/27 03:55:17;;;;;;;7.70;4.10;;;12.80;99.90;;;;;;5032909;28;20179;-71
2021/10/27 03:57:42;;;;;;;4.33;3.93;;;12.80;99.90;;;;;;5032901;28;20183;-71
2021/10/27 04:00:09;;;;;;;5.33;4.83;;;12.80;99.90;;;;;;5032596;28;20219;-71
2021/10/27 04:02:39;;;;;;;5.20;3.20;;;12.80;99.90;;;;;;5032972;28;20195;-71
2021/10/27 04:05:05;;;;;;;5.23;3.60;;;12.80;99.90;;;;;;5032953;28;20392;-72
2021/10/27 04:07:31;;;;;;;5.23;4.47;;;12.80;99.90;;;;;;5032344;28;20550;-72
2021/10/27 04:09:57;;;;;;;5.77;4.10;;;12.80;99.90;;;;;;5023175;28;20514;-71
2021/10/27 04:12:22;;;;;;;5.10;3.57;;;12.80;99.90;;;;;;5028097;28;20279;-71
2021/10/27 04:14:48;;;;;;;4.73;4.23;;;12.80;99.90;;;;;;5032664;28;20181;-73
2021/10/27 04:17:14;;;;;;;6.27;4.30;;;12.80;99.90;;;;;;5032586;28;20645;-72
2021/10/27 04:19:39;;;;;;;10.77;3.40;;;12.80;99.90;;;;;;5032065;28;20514;-72
2021/10/27 04:22:05;;;;;;;4.70;3.90;;;12.80;99.90;;;;;;5032357;28;20173;-71
2021/10/27 04:24:31;;;;;;;5.80;3.67;;;12.80;99.90;;;;;;5027878;28;20180;-72
2021/10/27 04:26:56;;;;;;;6.97;3.80;;;12.80;99.90;;;;;;5031743;28;20176;-74
2021/10/27 04:29:22;;;;;;;5.43;3.73;;;12.90;99.90;;;;;;5025646;28;20549;-72
2021/10/27 04:31:48;;;;;;;5.57;3.40;;;12.90;99.90;;;;;;5032474;28;20211;-72
2021/10/27 04:34:13;;;;;;;4.40;4.03;;;12.90;99.90;;;;;;5032250;28;20411;-71
2021/10/27 04:36:39;;;;;;;11.37;3.90;;;12.90;99.90;;;;;;5032405;28;20246;-72
2021/10/27 04:39:05;;;;;;;4.80;3.67;;;12.90;99.90;;;;;;5031586;28;20177;-71
2021/10/27 04:41:31;;;;;;;4.70;3.80;;;12.90;99.90;;;;;;5029663;28;20588;-72
2021/10/27 04:43:56;;;;;;;5.53;3.70;;;12.90;99.90;;;;;;5030404;28;20427;-72
2021/10/27 04:46:23;;;;;;;4.87;4.10;;;12.90;99.90;;;;;;5029682;28;20243;-71
2021/10/27 04:48:49;;;;;;;6.00;4.20;;;12.80;99.90;;;;;;5030368;28;20208;-72
2021/10/27 04:51:14;;;;;;;4.40;3.90;;;12.80;99.90;;;;;;5035033;28;20800;-71
2021/10/27 04:53:40;;;;;;;4.60;4.20;;;12.90;99.90;;;;;;5035299;28;20157;-71
2021/10/27 04:56:05;;;;;;;5.20;4.20;;;12.90;99.90;;;;;;5036119;28;20180;-72
2021/10/27 04:58:31;;;;;;;4.67;4.10;;;12.90;99.90;;;;;;5027624;28;20181;-71
2021/10/27 05:00:57;;;;;;;5.17;3.80;;;12.90;99.90;;;;;;5031787;28;20639;-71
2021/10/27 05:03:22;;;;;;;4.70;4.20;;;12.90;99.90;;;;;;5025333;28;20193;-71
2021/10/27 05:05:50;;;;;;;8.47;4.10;;;12.90;99.90;;;;;;5031194;28;20654;-73
2021/10/27 05:08:17;;;;;;;6.00;4.10;;;12.90;99.90;;;;;;5026973;28;20674;-73
2021/10/27 05:10:43;;;;;;;5.43;3.77;;;12.90;99.90;;;;;;5033114;28;20414;-73
2021/10/27 05:13:08;;;;;;;5.07;3.33;;;12.90;99.90;;;;;;5035122;28;20828;-71
2021/10/27 05:15:34;;;;;;;4.20;3.80;;;12.90;99.90;;;;;;5034571;28;20165;-73
2021/10/27 05:17:59;;;;;;;5.20;3.70;;;12.90;99.90;;;;;;5027502;28;20185;-72
2021/10/27 05:20:25;;;;;;;4.60;3.13;;;12.90;99.90;;;;;;5026808;28;20205;-72
2021/10/27 05:22:50;;;;;;;4.90;3.80;;;12.90;99.90;;;;;;5021501;28;20173;-72
2021/10/27 05:25:16;;;;;;;5.20;4.23;;;12.90;99.90;;;;;;5033699;28;20185;-72
2021/10/27 05:27:41;;;;;;;4.50;3.60;;;12.90;99.90;;;;;;5030689;28;20316;-71
2021/10/27 05:30:07;;;;;;;5.40;4.10;;;12.90;99.90;;;;;;5031990;28;20767;-72
2021/10/27 05:32:33;;;;;;;5.57;4.30;;;12.90;99.90;;;;;;5019989;28;20220;-73
2021/10/27 05:34:59;;;;;;;7.67;4.23;;;12.90;99.90;;;;;;5018056;28;20922;-72
2021/10/27 05:37:24;;;;;;;4.90;3.53;;;13.00;99.90;;;;;;5024615;28;20455;-71
2021/10/27 05:39:50;;;;;;;4.57;4.17;;;13.00;99.90;;;;;;5027911;28;20180;-73
2021/10/27 05:42:20;;;;;;;8.43;4.03;;;12.90;99.90;;;;;;5028367;28;20211;-75
2021/10/27 05:44:47;;;;;;;5.20;4.50;;;12.90;99.90;;;;;;5018896;28;20223;-74
2021/10/27 05:47:13;;;;;;;8.87;4.30;;;12.90;99.90;;;;;;5024465;28;20839;-75
2021/10/27 05:49:49;;;;;;;7.10;4.57;;;13.00;99.90;;;;;;5019405;28;20435;-75
2021/10/27 05:55:08;;;;;;;4.87;4.30;;;12.90;99.90;;;;;;5129455;27;21160;-70
2021/10/27 05:57:40;;;;;;;5.00;4.50;;;12.90;99.90;;;;;;5118987;27;20430;-70
2021/10/27 06:00:09;;;;;;;7.23;5.63;;;12.90;99.90;;;;;;5128415;27;20421;-69
2021/10/27 06:02:34;;;;;;;7.83;4.33;;;12.90;99.90;;;;;;5121253;27;20431;-68
2021/10/27 06:05:00;;;;;;;8.20;4.60;;;12.90;99.90;;;;;;5112864;27;21037;-70
2021/10/27 06:07:26;;;;;;;7.30;4.70;;;12.90;99.90;;;;;;5125411;27;20185;-68
2021/10/27 06:09:54;;;;;;;7.50;4.27;;;12.90;99.90;;;;;;5121205;27;20185;-69
2021/10/27 06:12:20;;;;;;;6.17;4.90;;;12.90;99.90;;;;;;5131400;27;20713;-71
2021/10/27 06:14:46;;;;;;;5.37;4.40;;;12.90;99.90;;;;;;5119688;27;20455;-69
2021/10/27 06:17:12;;;;;;;8.33;4.63;;;12.90;99.90;;;;;;5116992;27;20449;-69
2021/10/27 06:19:38;;;;;;;9.33;4.47;;;12.90;99.90;;;;;;5124767;27;20665;-69
2021/10/27 06:22:04;;;;;;;8.27;5.63;;;12.90;99.90;;;;;;5125170;27;20438;-69
2021/10/27 06:24:30;;;;;;;5.63;4.83;;;12.90;99.90;;;;;;5118930;27;20446;-69
2021/10/27 06:26:57;;;;;;;6.37;5.07;;;13.00;99.90;;;;;;5113246;27;20438;-71
2021/10/27 06:29:31;;;;;;;7.87;4.40;;;13.00;99.90;;;;;;5117378;27;20438;-69
2021/10/27 06:32:11;;;;;;;5.97;4.50;;;13.00;99.90;;;;;;5130143;27;20435;-69
2021/10/27 06:34:41;;;;;;;6.90;4.67;;;13.00;99.90;;;;;;5131812;27;20962;-71
2021/10/27 06:37:31;;;;;;;6.30;4.33;;;13.00;99.90;;;;;;5129139;27;20432;-71
2021/10/27 06:48:09;;;;;;;6.40;4.37;;;13.10;99.90;;;;;;5094667;28;20439;-70
2021/10/27 06:50:34;;;;;;;5.10;4.60;;;13.00;99.90;;;;;;5113724;28;20469;-69
2021/10/27 06:53:00;;;;;;;7.97;4.07;;;13.10;99.90;;;;;;5125084;28;20593;-69
2021/10/27 06:55:26;;;;;;;8.20;5.00;;;13.10;99.90;;;;;;5115286;28;20196;-69
2021/10/27 06:57:53;;;;;;;5.20;4.63;;;13.10;99.90;;;;;;5120535;27;21589;-69
2021/10/27 07:00:22;;;;;;;7.77;4.27;;;13.10;99.90;;;;;;5121471;27;20424;-70
2021/10/27 07:03:05;;;;;;;8.07;5.27;;;13.10;99.90;;;;;;5112720;27;20457;-68
2021/10/27 07:16:33;;;;;;;6.63;4.50;;;13.10;99.90;;;;;;5091968;28;20954;-70
2021/10/27 07:18:59;;;;;;;4.97;3.67;;;13.10;99.90;;;;;;5099819;28;20532;-69
2021/10/27 07:21:24;;;;;;;5.60;4.67;;;13.20;99.90;;;;;;5102214;27;20182;-72
2021/10/27 07:23:50;;;;;;;10.07;4.63;;;13.20;99.90;;;;;;5099623;28;20228;-71
2021/10/27 07:26:17;;;;;;;8.60;4.60;;;13.20;99.90;;;;;;5101864;28;20661;-69
2021/10/27 07:28:44;;;;;;;8.37;4.40;;;13.20;99.90;;;;;;5094558;28;20210;-69
2021/10/27 07:31:14;;;;;;;6.80;4.83;;;13.10;99.90;;;;;;5096395;28;20435;-68
2021/10/27 07:33:40;;;;;;;7.63;4.40;;;13.10;99.90;;;;;;5098764;28;20456;-70
2021/10/27 07:36:25;;;;;;;6.80;4.97;;;13.20;99.90;;;;;;5099075;27;20844;-68
2021/10/27 07:41:37;;;;;;;4.63;4.23;;;13.20;99.90;;;;;;5091504;28;20854;-69
2021/10/27 07:44:13;;;;;;;6.37;4.70;;;13.20;99.90;;;;;;5104111;28;20448;-69
2021/10/27 07:46:41;;;;;;;4.90;3.90;;;13.20;99.90;;;;;;5102431;27;20907;-68
2021/10/27 07:49:07;;;;;;;6.70;4.60;;;13.20;99.90;;;;;;5104809;28;20748;-68
2021/10/27 07:51:32;;;;;;;5.30;4.30;;;13.20;99.90;;;;;;5104824;28;20432;-68
2021/10/27 07:53:58;;;;;;;5.57;4.97;;;13.20;99.90;;;;;;5103622;28;20235;-68
2021/10/27 07:56:24;;;;;;;5.13;4.63;;;13.30;99.90;;;;;;5122933;22;21317;-74
2021/10/27 07:58:52;;;;;;;5.33;4.83;;;13.30;99.90;;;;;;5072752;28;20213;-75
2021/10/27 08:01:18;;;;;;;5.90;4.97;;;13.30;99.90;;;;;;5077083;22;20259;-73
2021/10/27 08:03:44;;;;;;;6.03;4.70;;;13.30;99.90;;;;;;5046505;28;21015;-68
2021/10/27 08:06:11;;;;;;;8.40;4.80;;;13.30;99.90;;;;;;5043712;28;20322;-68
2021/10/27 08:08:37;;;;;;;8.67;5.07;;;13.30;99.90;;;;;;5057847;28;20265;-68
2021/10/27 08:11:03;;;;;;;4.90;4.50;;;13.30;99.90;;;;;;5051292;28;20477;-69
2021/10/27 08:13:29;;;;;;;6.83;5.80;;;13.30;99.90;;;;;;5049699;28;20210;-68
2021/10/27 08:15:56;;;;;;;7.17;4.60;;;13.30;99.90;;;;;;5049419;28;20441;-69
2021/10/27 08:18:22;;;;;;;6.43;5.07;;;13.40;99.90;;;;;;5045156;28;20543;-68
2021/10/27 08:20:49;;;;;;;5.30;4.80;;;13.40;99.90;;;;;;5049008;28;20430;-69
2021/10/27 08:23:17;;;;;;;6.60;4.90;;;13.40;99.90;;;;;;5050741;28;20500;-69
2021/10/27 08:25:44;;;;;;;5.30;4.80;;;13.40;99.90;;;;;;5052217;28;20483;-68
2021/10/27 08:28:14;;;;;;;5.50;4.73;;;13.40;99.90;;;;;;5049241;28;20441;-68
2021/10/27 08:36:00;;;;;;;6.20;4.77;;;13.60;99.90;;;;;;5083078;27;20588;-68
2021/10/27 08:38:26;;;;;;;8.73;4.63;;;13.60;99.90;;;;;;5056059;28;20434;-68
2021/10/27 08:40:53;;;;;;;5.83;4.30;;;13.60;99.90;;;;;;5055969;28;20437;-68
2021/10/27 08:43:26;;;;;;;6.00;4.67;;;13.70;99.90;;;;;;5054944;28;20631;-68
2021/10/27 08:45:53;;;;;;;4.00;3.60;;;13.70;99.90;;;;;;5061439;28;20959;-68
2021/10/27 08:48:18;;;;;;;4.90;3.83;;;13.70;99.90;;;;;;5057587;28;20438;-68
2021/10/27 08:50:45;;;;;;;6.23;4.60;;;13.80;99.90;;;;;;5049947;28;21021;-68
2021/10/27 08:53:14;;;;;;;5.80;4.07;;;13.80;99.90;;;;;;5055270;28;20544;-69
2021/10/27 08:59:10;;;;;;;9.70;4.20;;;13.70;99.90;;;;;;5055072;28;20480;-68
2021/10/27 09:08:17;;;;;;;4.10;3.57;;;13.80;99.90;;;;;;5060060;28;20416;-68
2021/10/27 09:41:38;;;;;;;5.10;4.00;;;14.10;99.90;;;;;;5007953;27;20598;-68
2021/10/27 09:56:30;;;;;;;6.47;4.30;;;14.30;99.90;;;;;;5136044;27;20832;-70
2021/10/27 10:04:32;;;;;;;4.50;3.23;;;14.40;99.90;;;;;;5137197;27;20461;-68
2021/10/27 10:07:02;;;;;;;6.97;3.57;;;14.40;99.90;;;;;;5158628;27;20785;-68
2021/10/27 10:09:28;;;;;;;4.20;3.50;;;14.50;99.90;;;;;;5160177;27;20421;-69
2021/10/27 10:11:55;;;;;;;4.20;3.50;;;14.50;99.90;;;;;;5149391;27;20552;-69
2021/10/27 10:14:21;;;;;;;6.07;3.80;;;14.60;99.90;;;;;;5150666;27;20450;-70
2021/10/27 10:19:38;;;;;;;3.63;3.27;;;14.60;99.90;;;;;;5034526;28;20530;-69
2021/10/27 10:22:24;;;;;;;4.97;3.63;;;14.70;99.90;;;;;;5042666;28;20430;-70
2021/10/27 10:24:50;;;;;;;4.70;4.07;;;14.70;99.90;;;;;;5036722;28;20427;-69
2021/10/27 10:27:36;;;;;;;6.40;3.97;;;14.60;99.90;;;;;;5042172;28;21083;-69
2021/10/27 10:30:05;;;;;;;5.20;3.73;;;14.60;99.90;;;;;;5040094;28;20421;-69
2021/10/27 10:32:35;;;;;;;6.00;4.67;;;14.60;99.90;;;;;;5042535;28;20433;-70
2021/10/27 10:35:27;;;;;;;5.37;3.80;;;14.60;99.90;;;;;;5034733;28;20423;-69
2021/10/27 10:38:05;;;;;;;4.20;3.80;;;14.60;99.90;;;;;;5032704;28;20463;-71
2021/10/27 10:45:59;;;;;;;6.87;4.90;;;14.60;99.90;;;;;;5136259;27;21074;-68
2021/10/27 11:39:44;;;;;;;8.00;3.40;;;15.80;99.90;;;;;;5072697;28;20435;-68
2021/10/27 11:45:04;;;;;;;6.13;2.57;;;15.90;99.90;;;;;;5062765;28;20966;-68
2021/10/27 11:47:47;;;;;;;6.90;2.73;;;16.10;99.90;;;;;;5054055;28;20426;-68
2021/10/27 11:50:17;;;;;;;3.97;2.30;;;16.10;99.90;;;;;;5057661;28;20921;-68
2021/10/27 11:52:45;;;;;;;4.43;2.50;;;16.10;99.90;;;;;;5053949;28;20451;-68
2021/10/27 11:55:14;;;;;;;3.70;2.53;;;16.10;99.90;;;;;;5061441;28;20414;-69
2021/10/27 11:57:42;;;;;;;5.83;3.10;;;16.10;99.90;;;;;;5064482;28;20443;-69
2021/10/27 12:00:24;;;;;;;3.50;2.43;;;16.10;99.90;;;;;;5048022;28;20971;-70
2021/10/27 12:02:54;;;;;;;4.73;3.30;;;16.00;99.90;;;;;;5052997;28;20450;-68
2021/10/27 12:05:22;;;;;;;5.17;2.40;;;15.90;99.90;;;;;;5049151;28;20442;-68
2021/10/27 12:08:09;;;;;;;4.33;2.87;;;15.90;99.90;;;;;;5052384;28;20772;-67
2021/10/27 12:13:39;;;;;;;6.80;2.80;;;15.70;99.90;;;;;;5060182;28;20438;-69
2021/10/27 12:24:26;;;;;;;7.67;2.87;;;15.70;99.90;;;;;;5047676;28;20534;-69
2021/10/27 12:27:05;;;;;;;4.97;2.40;;;15.60;99.90;;;;;;5022845;28;20432;-69
2021/10/27 12:29:33;;;;;;;6.67;3.90;;;15.60;99.90;;;;;;5015964;28;20450;-70
2021/10/27 12:32:05;;;;;;;3.53;2.77;;;15.60;99.90;;;;;;5019330;28;20429;-70
2021/10/27 12:34:34;;;;;;;3.03;2.57;;;15.60;99.90;;;;;;5035042;28;20518;-69
2021/10/27 12:37:20;;;;;;;3.03;1.87;;;15.60;99.90;;;;;;5029944;28;20978;-68
2021/10/27 12:39:46;;;;;;;2.50;2.27;;;15.60;99.90;;;;;;5029500;28;20878;-68
2021/10/27 12:42:13;;;;;;;5.60;2.30;;;15.60;99.90;;;;;;5009273;28;20563;-71
2021/10/27 12:47:27;;;;;;;3.50;2.73;;;15.60;99.90;;;;;;5062958;28;20540;-70
2021/10/27 12:50:13;;;;;;;5.60;2.53;;;15.60;99.90;;;;;;5057461;28;21029;-69
2021/10/27 13:06:34;;;;;;;6.53;2.43;;;15.70;99.90;;;;;;5053933;28;20556;-69
2021/10/27 13:11:51;;;;;;;3.27;2.40;;;15.80;99.90;;;;;;5064796;28;20799;-69
2021/10/27 13:22:42;;;;;;;6.40;3.40;;;15.90;99.90;;;;;;5045986;28;20768;-69
2021/10/27 13:30:49;;;;;;;7.70;3.63;;;15.80;99.90;;;;;;5039472;28;20447;-69
2021/10/27 13:33:17;;;;;;;3.20;2.07;;;15.70;99.90;;;;;;5041568;28;20778;-68
2021/10/27 13:35:42;;;;;;;3.33;2.43;;;15.70;99.90;;;;;;5045513;28;20437;-68
2021/10/27 13:38:09;;;;;;;5.50;2.40;;;15.70;99.90;;;;;;5045935;28;20825;-69
2021/10/27 13:40:37;;;;;;;5.93;2.27;;;15.70;99.90;;;;;;5048890;28;20554;-69
2021/10/27 13:43:11;;;;;;;4.43;2.63;;;15.60;99.90;;;;;;5048754;28;20432;-68
2021/10/27 13:45:47;;;;;;;2.60;2.40;;;15.60;99.90;;;;;;5045008;28;20452;-69
2021/10/27 13:48:24;;;;;;;5.40;3.10;;;15.60;99.90;;;;;;5040515;28;20488;-68
2021/10/27 13:59:15;;;;;;;3.67;2.53;;;15.70;99.90;;;;;;5044374;28;20431;-68
2021/10/27 14:07:33;;;;;;;4.60;2.20;;;15.90;99.90;;;;;;5042216;28;20405;-68
2021/10/27 14:12:49;;;;;;;4.20;2.40;;;16.00;99.90;;;;;;5037567;28;20447;-69
2021/10/27 15:21:14;;;;;;;9.57;5.80;;;15.40;99.90;;;;;;5142191;27;20501;-68
2021/10/27 15:29:26;;;;;;;5.60;2.67;;;15.30;99.90;;;;;;5147518;27;20409;-68
2021/10/27 15:32:20;;;;;;;4.73;3.30;;;15.20;99.90;;;;;;5150872;27;20428;-68
2021/10/27 15:40:36;;;;;;;5.70;3.57;;;15.10;99.90;;;;;;5154687;27;20448;-67
2021/10/27 15:43:11;;;;;;;4.10;3.17;;;15.00;99.90;;;;;;5155794;27;20417;-68
2021/10/27 15:51:05;;;;;;;6.70;2.20;;;14.70;99.90;;;;;;5062102;28;20402;-69
2021/10/27 15:53:30;;;;;;;4.93;2.63;;;14.70;99.90;;;;;;5048944;28;20425;-69
2021/10/27 15:55:56;;;;;;;3.70;2.50;;;14.70;99.90;;;;;;5049256;28;20455;-70
2021/10/27 15:58:22;;;;;;;4.13;3.17;;;14.70;99.90;;;;;;5042707;28;20268;-69
2021/10/27 16:00:48;;;;;;;4.87;2.80;;;14.60;99.90;;;;;;5038363;28;20165;-69
2021/10/27 16:03:16;;;;;;;4.03;2.30;;;14.60;99.90;;;;;;5048607;28;20385;-69
2021/10/27 16:05:43;;;;;;;7.07;2.83;;;14.60;99.90;;;;;;5048653;28;20271;-70
2021/10/27 16:08:14;;;;;;;4.10;3.20;;;14.60;99.90;;;;;;5048875;28;20462;-69
2021/10/27 16:10:40;;;;;;;3.00;2.70;;;14.50;99.90;;;;;;5040534;28;21014;-70
2021/10/27 16:13:06;;;;;;;12.60;3.60;;;14.50;99.90;;;;;;5029201;28;20760;-69
2021/10/27 16:15:37;;;;;;;3.13;2.53;;;14.40;99.90;;;;;;5029215;28;20392;-69
2021/10/27 16:18:05;;;;;;;3.60;2.67;;;14.40;99.90;;;;;;5028812;28;20410;-69
2021/10/27 16:20:31;;;;;;;4.20;3.03;;;14.40;99.90;;;;;;5035269;28;20426;-69
2021/10/27 16:22:57;;;;;;;5.27;2.93;;;14.30;99.90;;;;;;5048544;28;20494;-69
2021/10/27 16:25:22;;;;;;;9.03;3.53;;;14.30;99.90;;;;;;5048589;28;20172;-69
2021/10/27 16:27:48;;;;;;;4.70;2.83;;;14.30;99.90;;;;;;5048156;28;20200;-70
2021/10/27 16:30:14;;;;;;;8.10;2.83;;;14.20;99.90;;;;;;5047096;28;20173;-70
2021/10/27 16:32:41;;;;;;;7.00;4.37;;;14.20;99.90;;;;;;5048537;28;20466;-71
2021/10/27 16:35:07;;;;;;;7.50;5.10;;;14.20;99.90;;;;;;5048382;28;20514;-69
2021/10/27 16:37:34;;;;;;;5.40;3.70;;;14.10;99.90;;;;;;5048283;28;20420;-70
2021/10/27 16:40:00;;;;;;;7.60;3.57;;;14.10;99.90;;;;;;5047584;28;20414;-69
2021/10/27 16:42:27;;;;;;;8.23;4.67;;;14.10;99.90;;;;;;5048459;28;20785;-69
2021/10/27 16:44:53;;;;;;;5.80;4.17;;;14.10;99.90;;;;;;5048153;28;20815;-69
2021/10/27 16:47:19;;;;;;;5.30;4.80;;;14.00;99.90;;;;;;5048130;28;20465;-70
2021/10/27 16:49:45;;;;;;;8.63;4.93;;;14.00;99.90;;;;;;5047903;28;20407;-69
2021/10/27 16:52:11;;;;;;;4.83;4.10;;;14.00;99.90;;;;;;5048281;28;20263;-70
2021/10/27 16:54:36;;;;;;;9.50;5.00;;;14.00;99.90;;;;;;5047905;28;20503;-70
2021/10/27 16:57:02;;;;;;;5.90;3.97;;;13.90;99.90;;;;;;5048330;28;20169;-69
2021/10/27 16:59:28;;;;;;;9.33;4.50;;;13.90;99.90;;;;;;5034404;28;20196;-69
2021/10/27 17:01:54;;;;;;;6.70;4.40;;;13.80;99.90;;;;;;5034816;28;20392;-70
2021/10/27 17:04:20;;;;;;;9.20;6.50;;;13.80;99.90;;;;;;5034667;28;20187;-69
2021/10/27 17:06:47;;;;;;;5.33;4.50;;;13.80;99.90;;;;;;5034306;28;21037;-70
2021/10/27 17:09:13;;;;;;;7.17;4.10;;;13.70;99.90;;;;;;5034580;28;20868;-69
2021/10/27 17:11:42;;;;;;;5.47;4.20;;;13.70;99.90;;;;;;5021895;28;20427;-68
2021/10/27 17:14:08;;;;;;;8.87;4.90;;;13.70;99.90;;;;;;5034671;28;20403;-69
2021/10/27 17:16:34;;;;;;;4.70;3.73;;;13.70;99.90;;;;;;5034412;28;20392;-69
2021/10/27 17:19:00;;;;;;;5.27;4.07;;;13.60;99.90;;;;;;5034652;28;20167;-70
2021/10/27 17:21:27;;;;;;;8.03;4.50;;;13.60;99.90;;;;;;5018482;28;20416;-69
2021/10/27 17:23:54;;;;;;;6.30;5.03;;;13.60;99.90;;;;;;5014819;28;20436;-70
2021/10/27 17:26:20;;;;;;;12.50;4.90;;;13.50;99.90;;;;;;5014353;28;20452;-69
2021/10/27 17:28:46;;;;;;;7.33;5.30;;;13.50;99.90;;;;;;5027926;28;20427;-70
2021/10/27 17:31:12;;;;;;;5.70;5.10;;;13.50;99.90;;;;;;5020134;28;20228;-70
2021/10/27 17:33:38;;;;;;;6.73;4.60;;;13.40;99.90;;;;;;5014501;28;20169;-69
2021/10/27 17:36:09;;;;;;;7.03;4.50;;;13.40;99.90;;;;;;5014120;28;20531;-69
2021/10/27 17:38:35;;;;;;;7.40;5.37;;;13.40;99.90;;;;;;5014182;28;20885;-69
2021/10/27 17:41:00;;;;;;;9.93;4.30;;;13.40;99.90;;;;;;5014564;28;20424;-68
2021/10/27 17:43:26;;;;;;;7.07;4.43;;;13.30;99.90;;;;;;5014213;28;20393;-69